Hauptseite
METAR-TAF:

METAR-TAF

Flughäfen :

Flughafen Treviso

Treviso, Italien

Breite: 45-39N, Länge: 012-11E, Höhe: 18 m

Beobachtung

Neuester Wetterbericht von vor 39 Minuten, um 06:20 UTC
Wind 3 kt aus Ost/Nordost, variierte zwischen Nord/Nordost und Ost
Temperatur 18°C
Luftfeuchtigkeit 77%
Luftdruck 1023 hPa
Sichtweite 10 km oder mehr
keine Wolken unter 1500 m und keine Kumulonimbus oder Gewitterwolken

METAR: LIPH 140620Z 06003KT 020V080 CAVOK 18/14 Q1023

Zeit: 08:59 (06:59 UTC)

Prognose

Neuester Wetterbericht von vor 1 Stunde und 59 Minuten, um 05:00 UTC
Gültige Prognose vom 14 um 06 UTC bis 15 um 06 UTC
Wind 5 kt aus unterschiedlichen Richtungen
Sichtweite 10 km oder mehr
keine Wolken unter 1500 m und keine Kumulonimbus oder Gewitterwolken

TAF: LIPH 140500Z 1406/1506 VRB05KT CAVOK

Wetterbeobachtungen und Prognosen von mehr als 4000 Flughäfen (METAR und TAF Bericht).

Die verfügbaren Stationen werden durch gelbe und rote Markierungen auf der Karte dargestellt.

Führen Sie die Maus auf sie, um den Namen der Station zu sehen.

Darauf klicken, um die Beobachtung von Wetterbeobachtungen und Prognosen zu sehen.

Um die Karte zu ändern : klicken Sie auf den grünen Tasten mit einem schwarzen Kreuz Zum Vergrößern, auf den grünen Button mit einem Gedankenstrich zu verkleinern, oder auf die grünen Pfeile für benachbarte Karten.


METAR-TAF: